createdAt,value
2017-11-13T00:00:08.411Z,95.84
2017-11-13T00:01:08.397Z,96.03
2017-11-13T00:02:08.381Z,95.84
2017-11-13T00:03:08.375Z,96.5
2017-11-13T00:04:08.030Z,96.22
2017-11-13T00:05:08.344Z,96.45
2017-11-13T00:06:08.334Z,96.64
2017-11-13T00:07:08.317Z,96.55
2017-11-13T00:08:08.309Z,96.59
2017-11-13T00:09:08.289Z,96.5
2017-11-13T00:10:08.278Z,96.59
2017-11-13T00:11:08.299Z,96.59
2017-11-13T00:12:08.253Z,96.59
2017-11-13T00:13:08.236Z,96.59
2017-11-13T00:14:08.231Z,96.41
2017-11-13T00:15:08.222Z,96.31
2017-11-13T00:16:08.199Z,96.59
2017-11-13T00:17:08.186Z,96.5
2017-11-13T00:18:07.846Z,96.41
2017-11-13T00:19:08.158Z,96.41
2017-11-13T00:20:08.142Z,96.41
2017-11-13T00:21:08.133Z,96.41
2017-11-13T00:22:08.139Z,96.41
2017-11-13T00:23:08.116Z,96.22
2017-11-13T00:24:08.094Z,96.22
2017-11-13T00:25:08.095Z,96.41
2017-11-13T00:26:08.077Z,96.41
2017-11-13T00:27:08.072Z,96.41
2017-11-13T00:28:08.037Z,96.41
2017-11-13T00:29:08.025Z,96.41
2017-11-13T00:30:08.011Z,96.41
2017-11-13T00:31:08.008Z,96.41
2017-11-13T00:32:07.985Z,95.93
2017-11-13T00:33:07.974Z,95.88
2017-11-13T00:34:07.962Z,95.93
2017-11-13T00:35:07.949Z,96.36
2017-11-13T00:36:07.933Z,96.31
2017-11-13T00:37:07.918Z,95.88
2017-11-13T00:38:07.578Z,96.17
2017-11-13T00:39:07.897Z,95.98
2017-11-13T00:40:07.560Z,96.17
2017-11-13T00:41:07.877Z,95.84
2017-11-13T00:42:07.861Z,96.08
2017-11-13T00:43:07.881Z,95.69
2017-11-13T00:44:07.829Z,95.6
2017-11-13T00:45:07.823Z,95.79
2017-11-13T00:46:07.806Z,95.88
2017-11-13T00:47:07.788Z,95.79
2017-11-13T00:48:07.787Z,95.79
2017-11-13T00:49:07.764Z,95.79
2017-11-13T00:50:07.752Z,95.79
2017-11-13T00:51:07.742Z,95.98
2017-11-13T00:52:07.398Z,95.69
2017-11-13T00:53:07.707Z,96.26
2017-11-13T00:54:07.695Z,96.26
2017-11-13T00:55:07.683Z,95.98
2017-11-13T00:56:07.670Z,95.69
2017-11-13T00:57:07.333Z,95.98
2017-11-13T00:58:07.643Z,96.08
2017-11-13T00:59:07.640Z,96.26
2017-11-13T01:00:07.620Z,96.08
2017-11-13T01:01:07.602Z,96.26
2017-11-13T01:02:07.590Z,96.08
2017-11-13T01:03:07.254Z,96.03
2017-11-13T01:04:07.567Z,96.03
2017-11-13T01:05:07.553Z,96.12
2017-11-13T01:06:07.558Z,96.22
2017-11-13T01:07:07.531Z,96.03
2017-11-13T01:08:07.189Z,96.12
2017-11-13T01:09:07.508Z,95.84
2017-11-13T01:10:07.487Z,95.84
2017-11-13T01:11:07.472Z,95.84
2017-11-13T01:12:07.464Z,96.41
2017-11-13T01:13:07.453Z,95.84
2017-11-13T01:14:07.438Z,95.93
2017-11-13T01:15:07.423Z,96.22
2017-11-13T01:16:07.409Z,96.59
2017-11-13T01:17:07.070Z,96.59
2017-11-13T01:18:07.379Z,95.93
2017-11-13T01:19:07.369Z,96.03
2017-11-13T01:20:07.027Z,95.84
2017-11-13T01:21:07.017Z,95.84
2017-11-13T01:22:07.328Z,96.59
2017-11-13T01:23:06.991Z,96.5
2017-11-13T01:24:07.303Z,96.41
2017-11-13T01:25:07.287Z,96.59
2017-11-13T01:26:06.947Z,96.59
2017-11-13T01:27:07.257Z,96.59
2017-11-13T01:28:06.922Z,96.5
2017-11-13T01:29:07.231Z,96.41
2017-11-13T01:30:07.234Z,96.59
2017-11-13T01:31:06.883Z,96.41
2017-11-13T01:32:07.193Z,96.41
2017-11-13T01:33:07.176Z,96.22
2017-11-13T01:34:07.167Z,95.93
2017-11-13T01:35:07.160Z,95.93
2017-11-13T01:36:07.151Z,96.26
2017-11-13T01:37:07.125Z,96.31
2017-11-13T01:38:07.115Z,95.84
2017-11-13T01:39:07.110Z,95.98
2017-11-13T01:40:07.086Z,95.88
2017-11-13T01:41:07.070Z,96.03
2017-11-13T01:42:07.062Z,96.03
2017-11-13T01:43:07.051Z,95.88
2017-11-13T01:44:07.034Z,96.08
2017-11-13T01:45:07.021Z,95.98
2017-11-13T01:46:07.005Z,95.98
2017-11-13T01:47:06.996Z,95.98
2017-11-13T01:48:06.987Z,95.88
2017-11-13T01:49:06.967Z,96.08
2017-11-13T01:50:06.957Z,95.69
2017-11-13T01:51:06.939Z,96.08
2017-11-13T01:52:06.927Z,95.69
2017-11-13T01:53:06.914Z,95.98
2017-11-13T01:54:06.902Z,96.17
2017-11-13T01:55:06.885Z,95.79
2017-11-13T01:56:06.877Z,95.5
2017-11-13T01:57:06.859Z,95.79
2017-11-13T01:58:06.854Z,95.79
2017-11-13T01:59:06.853Z,96.08
2017-11-13T02:00:06.835Z,95.79
2017-11-13T02:01:06.810Z,95.79
2017-11-13T02:02:06.801Z,96.08
2017-11-13T02:03:06.783Z,95.98
2017-11-13T02:04:06.769Z,95.79
2017-11-13T02:05:06.771Z,95.98
2017-11-13T02:06:06.418Z,96.08
2017-11-13T02:07:06.732Z,96.17
2017-11-13T02:08:06.737Z,95.98
2017-11-13T02:09:06.709Z,95.98
2017-11-13T02:10:06.698Z,95.98
2017-11-13T02:11:06.685Z,95.98
2017-11-13T02:12:06.665Z,96.26
2017-11-13T02:13:06.653Z,96.17
2017-11-13T02:14:06.639Z,96.17
2017-11-13T02:15:06.629Z,96.17
2017-11-13T02:16:06.614Z,96.17
2017-11-13T02:17:06.604Z,96.08
2017-11-13T02:18:06.588Z,95.98
2017-11-13T02:19:06.575Z,96.08
2017-11-13T02:20:06.561Z,96.08
2017-11-13T02:21:06.546Z,95.98
2017-11-13T02:22:06.535Z,95.98
2017-11-13T02:23:06.524Z,95.98
2017-11-13T02:24:06.511Z,95.88
2017-11-13T02:25:06.503Z,95.98
2017-11-13T02:26:06.504Z,95.88
2017-11-13T02:27:06.476Z,95.98
2017-11-13T02:28:06.471Z,95.98
2017-11-13T02:29:06.450Z,96.08
2017-11-13T02:30:06.448Z,95.88
2017-11-13T02:31:06.428Z,95.98
2017-11-13T02:32:06.419Z,95.79
2017-11-13T02:33:06.402Z,95.69
2017-11-13T02:34:06.381Z,95.69
2017-11-13T02:35:06.366Z,95.98
2017-11-13T02:36:06.355Z,96.08
2017-11-13T02:37:06.336Z,95.79
2017-11-13T02:38:06.331Z,95.88
2017-11-13T02:39:06.330Z,95.79
2017-11-13T02:40:06.310Z,95.41
2017-11-13T02:41:05.961Z,95.41
2017-11-13T02:42:06.274Z,96.17
2017-11-13T02:43:06.257Z,95.5
2017-11-13T02:44:06.247Z,95.6
2017-11-13T02:45:06.236Z,95.5
2017-11-13T02:46:06.222Z,95.65
2017-11-13T02:47:06.209Z,95.41
2017-11-13T02:48:06.209Z,95.6
2017-11-13T02:49:05.857Z,95.41
2017-11-13T02:50:06.170Z,95.6
2017-11-13T02:51:06.173Z,95.65
2017-11-13T02:52:06.144Z,95.5
2017-11-13T02:53:06.132Z,95.6
2017-11-13T02:54:06.127Z,95.74
2017-11-13T02:55:05.780Z,95.74
2017-11-13T02:56:06.093Z,95.65
2017-11-13T02:57:06.081Z,95.84
2017-11-13T02:58:06.067Z,95.65
2017-11-13T02:59:06.058Z,95.74
2017-11-13T03:00:06.049Z,95.65
2017-11-13T03:01:05.703Z,95.65
2017-11-13T03:02:05.693Z,95.84
2017-11-13T03:03:06.013Z,95.84
2017-11-13T03:04:05.989Z,95.65
2017-11-13T03:05:05.977Z,95.65
2017-11-13T03:06:05.969Z,94.79
2017-11-13T03:07:05.954Z,95.27
2017-11-13T03:08:05.620Z,95.65
2017-11-13T03:09:05.927Z,94.98
2017-11-13T03:10:05.590Z,95.46
2017-11-13T03:11:05.958Z,95.27
2017-11-13T03:12:05.891Z,94.98
2017-11-13T03:13:05.878Z,95.17
2017-11-13T03:14:05.872Z,95.07
2017-11-13T03:15:05.528Z,95.36
2017-11-13T03:16:05.863Z,95.27
2017-11-13T03:17:05.829Z,95.17
2017-11-13T03:18:05.817Z,95.27
2017-11-13T03:19:05.801Z,95.17
2017-11-13T03:20:05.786Z,95.27
2017-11-13T03:21:05.782Z,95.27
2017-11-13T03:22:05.764Z,95.27
2017-11-13T03:23:05.751Z,95.17
2017-11-13T03:24:05.736Z,95.27
2017-11-13T03:25:05.725Z,95.36
2017-11-13T03:26:05.712Z,95.46
2017-11-13T03:27:05.699Z,94.98
2017-11-13T03:28:05.361Z,95.46
2017-11-13T03:29:05.674Z,95.36
2017-11-13T03:30:05.343Z,95.36
2017-11-13T03:31:05.666Z,95.46
2017-11-13T03:32:05.312Z,95.46
2017-11-13T03:33:05.628Z,95.36
2017-11-13T03:34:05.617Z,94.98
2017-11-13T03:35:05.604Z,94.98
2017-11-13T03:36:05.584Z,95.17
2017-11-13T03:37:05.575Z,94.98
2017-11-13T03:38:05.571Z,94.98
2017-11-13T03:39:05.552Z,94.98
2017-11-13T03:40:05.538Z,95.17
2017-11-13T03:41:05.197Z,95.46
2017-11-13T03:42:05.187Z,95.46
2017-11-13T03:43:05.500Z,95.46
2017-11-13T03:44:05.488Z,95.17
2017-11-13T03:45:05.473Z,95.36
2017-11-13T03:46:05.458Z,95.27
2017-11-13T03:47:05.122Z,95.27
2017-11-13T03:48:05.436Z,94.98
2017-11-13T03:49:05.424Z,95.36
2017-11-13T03:50:05.414Z,95.36
2017-11-13T03:51:05.402Z,95.36
2017-11-13T03:52:05.061Z,95.46
2017-11-13T03:53:05.372Z,94.89
2017-11-13T03:54:05.366Z,95.74
2017-11-13T03:55:05.348Z,95.84
2017-11-13T03:56:05.337Z,95.93
2017-11-13T03:57:05.001Z,95.84
2017-11-13T03:58:05.318Z,95.84
2017-11-13T03:59:05.298Z,95.65
2017-11-13T04:00:05.289Z,95.84
2017-11-13T04:01:04.950Z,95.93
2017-11-13T04:02:05.262Z,95.65
2017-11-13T04:03:05.248Z,95.65
2017-11-13T04:04:05.242Z,95.65
2017-11-13T04:05:05.228Z,95.93
2017-11-13T04:06:05.214Z,95.74
2017-11-13T04:07:05.198Z,95.65
2017-11-13T04:08:05.192Z,95.65
2017-11-13T04:09:04.849Z,94.98
2017-11-13T04:10:05.186Z,95.84
2017-11-13T04:11:05.143Z,95.17
2017-11-13T04:12:05.136Z,95.27
2017-11-13T04:13:05.121Z,95.27
2017-11-13T04:14:05.117Z,95.84
2017-11-13T04:15:05.108Z,95.74
2017-11-13T04:16:05.088Z,95.36
2017-11-13T04:17:05.149Z,95.46
2017-11-13T04:18:05.063Z,95.17
2017-11-13T04:19:05.066Z,95.17
2017-11-13T04:20:04.723Z,95.17
2017-11-13T04:21:05.018Z,95.27
2017-11-13T04:22:05.009Z,95.17
2017-11-13T04:23:05.004Z,95.07
2017-11-13T04:24:04.987Z,94.98
2017-11-13T04:25:04.974Z,95.55
2017-11-13T04:26:04.971Z,95.27
2017-11-13T04:27:04.945Z,95.74
2017-11-13T04:28:04.934Z,95.27
2017-11-13T04:29:04.920Z,95.17
2017-11-13T04:30:04.907Z,95.17
2017-11-13T04:31:04.896Z,95.17
2017-11-13T04:32:04.881Z,95.17
2017-11-13T04:33:04.877Z,95.07
2017-11-13T04:34:04.860Z,95.93
2017-11-13T04:35:04.843Z,95.93
2017-11-13T04:36:04.509Z,95.46
2017-11-13T04:37:04.824Z,95.46
2017-11-13T04:38:04.814Z,95.36
2017-11-13T04:39:04.796Z,94.98
2017-11-13T04:40:04.457Z,94.98
2017-11-13T04:41:04.452Z,95.27
2017-11-13T04:42:04.759Z,95.17
2017-11-13T04:43:04.791Z,95.36
2017-11-13T04:44:04.736Z,94.98
2017-11-13T04:45:04.394Z,95.27
2017-11-13T04:46:04.719Z,95.07
2017-11-13T04:47:04.726Z,95.17
2017-11-13T04:48:04.681Z,95.17
2017-11-13T04:49:04.670Z,95.27
2017-11-13T04:50:04.657Z,95.17
2017-11-13T04:51:04.648Z,95.07
2017-11-13T04:52:04.637Z,95.27
2017-11-13T04:53:04.619Z,95.07
2017-11-13T04:54:04.617Z,95.17
2017-11-13T04:55:04.596Z,95.27
2017-11-13T04:56:04.587Z,95.17
2017-11-13T04:57:04.574Z,95.07
2017-11-13T04:58:04.576Z,95.17
2017-11-13T04:59:04.546Z,95.17
2017-11-13T05:00:04.539Z,95.36
2017-11-13T05:01:04.521Z,95.17
2017-11-13T05:02:04.510Z,95.07
2017-11-13T05:03:04.497Z,95.27
2017-11-13T05:04:04.498Z,94.98
2017-11-13T05:05:04.473Z,95.17
2017-11-13T05:06:04.462Z,95.12
2017-11-13T05:07:04.125Z,95.31
2017-11-13T05:08:04.434Z,95.27
2017-11-13T05:09:04.425Z,95.31
2017-11-13T05:10:04.413Z,95.51
2017-11-13T05:11:04.399Z,95.6
2017-11-13T05:12:04.386Z,95.6
2017-11-13T05:13:04.048Z,95.41
2017-11-13T05:14:04.365Z,95.51
2017-11-13T05:15:04.352Z,95.51
2017-11-13T05:16:04.355Z,95.22
2017-11-13T05:17:04.324Z,95.41
2017-11-13T05:18:04.310Z,95.41
2017-11-13T05:19:03.976Z,95.31
2017-11-13T05:20:04.286Z,95.31
2017-11-13T05:21:03.956Z,95.31
2017-11-13T05:22:04.266Z,95.31
2017-11-13T05:23:04.249Z,95.31
2017-11-13T05:24:04.241Z,95.31
2017-11-13T05:25:04.242Z,95.31
2017-11-13T05:26:04.217Z,95.31
2017-11-13T05:27:04.202Z,95.31
2017-11-13T05:28:04.199Z,95.41
2017-11-13T05:29:04.178Z,95.51
2017-11-13T05:30:04.163Z,95.41
2017-11-13T05:31:04.152Z,95.12
2017-11-13T05:32:04.165Z,95.51
2017-11-13T05:33:04.150Z,95.31
2017-11-13T05:34:04.118Z,95.41
2017-11-13T05:35:04.105Z,95.51
2017-11-13T05:36:04.093Z,95.41
2017-11-13T05:37:04.083Z,95.41
2017-11-13T05:38:04.071Z,95.31
2017-11-13T05:39:04.065Z,95.51
2017-11-13T05:40:04.044Z,95.12
2017-11-13T05:41:04.034Z,95.12
2017-11-13T05:42:04.024Z,95.41
2017-11-13T05:43:04.007Z,95.51
2017-11-13T05:44:04.000Z,95.03
2017-11-13T05:45:03.984Z,95.31
2017-11-13T05:46:03.976Z,95.41
2017-11-13T05:47:03.961Z,95.31
2017-11-13T05:48:03.949Z,95.51
2017-11-13T05:49:03.933Z,95.6
2017-11-13T05:50:03.931Z,95.31
2017-11-13T05:51:03.922Z,95.41
2017-11-13T05:52:03.904Z,95.31
2017-11-13T05:53:03.890Z,95.51
2017-11-13T05:54:03.876Z,95.31
2017-11-13T05:55:03.877Z,95.41
2017-11-13T05:56:03.865Z,95.31
2017-11-13T05:57:03.841Z,95.46
2017-11-13T05:58:03.826Z,95.36
2017-11-13T05:59:03.493Z,95.46
2017-11-13T06:00:03.811Z,95.36
2017-11-13T06:01:03.793Z,95.27
2017-11-13T06:02:03.783Z,95.46
2017-11-13T06:03:03.768Z,95.46
2017-11-13T06:04:03.755Z,95.07
2017-11-13T06:05:03.743Z,95.07
2017-11-13T06:06:03.731Z,95.27
2017-11-13T06:07:03.718Z,94.89
2017-11-13T06:08:03.708Z,95.07
2017-11-13T06:09:03.692Z,95.17
2017-11-13T06:10:03.677Z,95.27
2017-11-13T06:11:03.668Z,95.17
2017-11-13T06:12:03.654Z,95.27
2017-11-13T06:13:03.647Z,95.27
2017-11-13T06:14:03.632Z,95.17
2017-11-13T06:15:03.624Z,94.98
2017-11-13T06:16:03.607Z,95.46
2017-11-13T06:17:03.601Z,95.07
2017-11-13T06:18:03.580Z,95.12
2017-11-13T06:19:03.571Z,95.27
2017-11-13T06:20:03.587Z,95.17
2017-11-13T06:21:03.221Z,95.31
2017-11-13T06:22:03.536Z,95.22
2017-11-13T06:23:03.529Z,95.36
2017-11-13T06:24:03.508Z,95.17
2017-11-13T06:25:03.504Z,95.51
2017-11-13T06:26:03.524Z,95.51
2017-11-13T06:27:03.473Z,95.22
2017-11-13T06:28:03.461Z,95.22
2017-11-13T06:29:03.445Z,95.31
2017-11-13T06:30:03.438Z,95.31
2017-11-13T06:31:03.424Z,95.31
2017-11-13T06:32:03.423Z,95.31
2017-11-13T06:33:03.071Z,95.41
2017-11-13T06:34:03.386Z,95.6
2017-11-13T06:35:03.373Z,95.51
2017-11-13T06:36:03.363Z,95.51
2017-11-13T06:37:03.353Z,95.51
2017-11-13T06:38:03.337Z,95.51
2017-11-13T06:39:03.328Z,95.03
2017-11-13T06:40:03.313Z,95.41
2017-11-13T06:41:03.302Z,95.31
2017-11-13T06:42:03.290Z,95.03
2017-11-13T06:43:03.276Z,95.41
2017-11-13T06:44:03.276Z,95.31
2017-11-13T06:45:03.251Z,95.31
2017-11-13T06:46:03.248Z,95.31
2017-11-13T06:47:03.233Z,95.31
2017-11-13T06:48:03.224Z,95.31
2017-11-13T06:49:03.202Z,95.31
2017-11-13T06:50:03.204Z,95.41
2017-11-13T06:51:03.181Z,95.31
2017-11-13T06:52:03.170Z,95.31
2017-11-13T06:53:03.169Z,95.31
2017-11-13T06:54:03.154Z,95.41
2017-11-13T06:55:03.130Z,95.31
2017-11-13T06:56:03.118Z,95.31
2017-11-13T06:57:03.108Z,95.41
2017-11-13T06:58:03.097Z,95.41
2017-11-13T06:59:03.082Z,94.98
2017-11-13T07:00:03.082Z,94.98
2017-11-13T07:01:03.108Z,95.27
2017-11-13T07:02:03.528Z,95.08
2017-11-13T07:03:03.039Z,95.17
2017-11-13T07:04:02.701Z,94.98
2017-11-13T07:05:02.686Z,95.08
2017-11-13T07:06:03.002Z,94.98
2017-11-13T07:07:02.999Z,95.17
2017-11-13T07:08:02.983Z,95.17
2017-11-13T07:09:02.971Z,95.17
2017-11-13T07:10:02.955Z,95.36
2017-11-13T07:11:02.943Z,95.17
2017-11-13T07:12:02.930Z,95.08
2017-11-13T07:13:02.932Z,95.08
2017-11-13T07:14:02.907Z,95.17
2017-11-13T07:15:02.896Z,94.98
2017-11-13T07:16:02.886Z,94.89
2017-11-13T07:17:02.896Z,94.89
2017-11-13T07:18:02.863Z,95.36
2017-11-13T07:19:02.857Z,94.89
2017-11-13T07:20:02.515Z,94.7
2017-11-13T07:21:02.836Z,94.51
2017-11-13T07:22:02.813Z,94.89
2017-11-13T07:23:02.808Z,94.89
2017-11-13T07:24:02.468Z,94.89
2017-11-13T07:25:02.783Z,94.7
2017-11-13T07:26:02.444Z,95.27
2017-11-13T07:27:02.772Z,95.17
2017-11-13T07:28:02.746Z,94.89
2017-11-13T07:29:02.735Z,94.32
2017-11-13T07:30:02.722Z,95.27
2017-11-13T07:31:02.716Z,94.42
2017-11-13T07:32:02.707Z,94.51
2017-11-13T07:33:02.687Z,94.6
2017-11-13T07:34:02.679Z,95.17
2017-11-13T07:35:02.665Z,94.98
2017-11-13T07:36:02.653Z,95.17
2017-11-13T07:37:02.643Z,95.27
2017-11-13T07:38:02.305Z,95.36
2017-11-13T07:39:02.618Z,95.22
2017-11-13T07:40:02.605Z,95.03
2017-11-13T07:41:02.599Z,94.84
2017-11-13T07:42:02.583Z,95.22
2017-11-13T07:43:02.590Z,94.74
2017-11-13T07:44:02.563Z,94.74
2017-11-13T07:45:02.555Z,94.84
2017-11-13T07:46:02.551Z,94.74
2017-11-13T07:47:02.537Z,95.03
2017-11-13T07:48:02.524Z,94.84
2017-11-13T07:49:02.505Z,94.93
2017-11-13T07:50:02.495Z,95.03
2017-11-13T07:51:02.484Z,94.65
2017-11-13T07:52:02.163Z,94.56
2017-11-13T07:53:02.463Z,94.37
2017-11-13T07:54:02.454Z,94.74
2017-11-13T07:55:02.442Z,94.74
2017-11-13T07:56:02.437Z,94.56
2017-11-13T07:57:02.419Z,94.56
2017-11-13T07:58:02.412Z,94.65
2017-11-13T07:59:02.400Z,94.84
2017-11-13T08:00:02.390Z,94.65
2017-11-13T08:01:02.380Z,94.74
2017-11-13T08:02:02.376Z,94.56
2017-11-13T08:03:02.353Z,94.74
2017-11-13T08:04:02.339Z,94.65
2017-11-13T08:05:02.335Z,94.74
2017-11-13T08:06:02.317Z,94.65
2017-11-13T08:07:02.336Z,94.74
2017-11-13T08:08:02.326Z,94.74
2017-11-13T08:09:02.288Z,94.56
2017-11-13T08:10:02.303Z,94.56
2017-11-13T08:11:01.980Z,94.6
2017-11-13T08:12:02.253Z,94.6
2017-11-13T08:13:02.250Z,94.79
2017-11-13T08:14:02.233Z,94.7
2017-11-13T08:15:02.247Z,94.22
2017-11-13T08:16:02.267Z,94.42
2017-11-13T08:17:02.216Z,94.6
2017-11-13T08:18:02.224Z,94.79
2017-11-13T08:19:02.183Z,94.7
2017-11-13T08:20:02.168Z,94.89
2017-11-13T08:21:02.158Z,94.98
2017-11-13T08:22:02.143Z,94.6
2017-11-13T08:23:02.134Z,94.7
2017-11-13T08:24:02.128Z,94.6
2017-11-13T08:25:01.789Z,94.79
2017-11-13T08:26:02.126Z,94.79
2017-11-13T08:27:02.097Z,94.7
2017-11-13T08:28:02.089Z,94.79
2017-11-13T08:29:02.085Z,95.03
2017-11-13T08:30:02.063Z,93.89
2017-11-13T08:31:02.049Z,94.27
2017-11-13T08:32:02.043Z,94.08
2017-11-13T08:33:02.032Z,94.18
2017-11-13T08:34:02.017Z,93.98
2017-11-13T08:35:02.013Z,94.18
2017-11-13T08:36:02.000Z,93.98
2017-11-13T08:37:01.989Z,93.98
2017-11-13T08:38:01.990Z,94.18
2017-11-13T08:39:01.968Z,94.18
2017-11-13T08:40:01.960Z,93.98
2017-11-13T08:41:01.949Z,93.98
2017-11-13T08:42:01.950Z,93.98
2017-11-13T08:43:01.929Z,94.46
2017-11-13T08:44:01.940Z,94.37
2017-11-13T08:45:01.931Z,94.46
2017-11-13T08:46:01.920Z,94.93
2017-11-13T08:47:01.893Z,94.93
2017-11-13T08:48:01.886Z,94.93
2017-11-13T08:49:01.550Z,94.32
2017-11-13T08:50:01.874Z,94.42
2017-11-13T08:51:01.908Z,95.22
2017-11-13T08:52:01.862Z,94.32
2017-11-13T08:53:01.833Z,94.74
2017-11-13T08:54:01.825Z,94.56
2017-11-13T08:55:01.813Z,95.12
2017-11-13T08:56:01.807Z,94.46
2017-11-13T08:57:01.792Z,94.37
2017-11-13T08:58:01.777Z,94.27
2017-11-13T08:59:01.772Z,93.7
2017-11-13T09:00:01.759Z,94.18
2017-11-13T09:01:01.773Z,93.7
2017-11-13T09:02:01.413Z,94.37
2017-11-13T09:03:01.729Z,94.37
2017-11-13T09:04:01.717Z,94.18
2017-11-13T09:05:01.383Z,94.08
2017-11-13T09:06:01.703Z,94.27
2017-11-13T09:07:01.686Z,94.37
2017-11-13T09:08:01.693Z,94.18
2017-11-13T09:09:01.696Z,94.18
2017-11-13T09:10:01.659Z,94.18
2017-11-13T09:11:01.654Z,95.03
2017-11-13T09:12:01.645Z,94.37
2017-11-13T09:13:01.645Z,94.08
2017-11-13T09:14:01.300Z,94.84
2017-11-13T09:15:01.621Z,95.12
2017-11-13T09:16:01.606Z,94.84
2017-11-13T09:17:01.589Z,94.84
2017-11-13T09:18:01.583Z,95.22
2017-11-13T09:19:01.568Z,95.03
2017-11-13T09:20:01.559Z,95.03
2017-11-13T09:21:01.547Z,94.74
2017-11-13T09:22:01.544Z,95.12
2017-11-13T09:23:01.530Z,94.84
2017-11-13T09:24:01.198Z,94.84
2017-11-13T09:25:01.512Z,95.03
2017-11-13T09:26:01.496Z,94.84
2017-11-13T09:27:01.188Z,94.46
2017-11-13T09:28:01.472Z,94.37
2017-11-13T09:29:01.464Z,94.27
2017-11-13T09:30:01.455Z,94.46
2017-11-13T09:31:01.457Z,94.27
2017-11-13T09:32:01.440Z,94.46
2017-11-13T09:33:01.464Z,94.84
2017-11-13T09:34:01.464Z,94.65
2017-11-13T09:35:01.422Z,95.03
2017-11-13T09:36:01.393Z,94.74
2017-11-13T09:37:01.385Z,94.56
2017-11-13T09:38:01.409Z,95.41
2017-11-13T09:39:01.370Z,94.79
2017-11-13T09:40:01.360Z,95.08
2017-11-13T09:41:01.343Z,95.27
2017-11-13T09:42:01.343Z,95.17
2017-11-13T09:43:01.328Z,94.98
2017-11-13T09:44:01.331Z,95.08
2017-11-13T09:45:01.311Z,94.98
2017-11-13T09:46:01.296Z,95.08
2017-11-13T09:47:01.292Z,95.08
2017-11-13T09:48:01.290Z,95.27
2017-11-13T09:49:01.288Z,94.98
2017-11-13T09:50:01.272Z,95.08
2017-11-13T09:51:01.260Z,94.7
2017-11-13T09:52:01.244Z,94.98
2017-11-13T09:53:01.232Z,94.6
2017-11-13T09:54:00.915Z,94.7
2017-11-13T09:55:01.209Z,94.98
2017-11-13T09:56:00.881Z,95.17
2017-11-13T09:57:01.469Z,94.6
2017-11-13T09:58:00.863Z,94.98
2017-11-13T09:59:01.196Z,94.6
2017-11-13T10:00:01.619Z,94.7
2017-11-13T10:01:01.430Z,94.89
2017-11-13T10:02:01.182Z,94.6
2017-11-13T10:03:01.164Z,95.03
2017-11-13T10:04:00.806Z,94.84
2017-11-13T10:05:01.343Z,94.84
2017-11-13T10:06:01.153Z,94.46
2017-11-13T10:07:00.782Z,94.65
2017-11-13T10:08:01.093Z,94.84
2017-11-13T10:09:01.072Z,94.84
2017-11-13T10:10:01.076Z,94.37
2017-11-13T10:11:01.078Z,95.03
2017-11-13T10:12:01.085Z,94.65
2017-11-13T10:13:01.049Z,94.65
2017-11-13T10:14:01.058Z,94.84
2017-11-13T10:15:01.030Z,94.46
2017-11-13T10:16:01.015Z,95.22
2017-11-13T10:17:01.038Z,94.93
2017-11-13T10:18:00.979Z,94.65
2017-11-13T10:19:01.222Z,94.93
2017-11-13T10:20:00.961Z,94.65
2017-11-13T10:21:00.949Z,94.84
2017-11-13T10:22:00.930Z,94.84
2017-11-13T10:23:00.935Z,94.65
2017-11-13T10:24:00.915Z,94.84
2017-11-13T10:25:00.901Z,95.03
2017-11-13T10:26:00.561Z,95.03
2017-11-13T10:27:01.159Z,95.03
2017-11-13T10:28:00.874Z,94.84
2017-11-13T10:29:01.073Z,95.03
2017-11-13T10:30:00.875Z,95.12
2017-11-13T10:31:00.903Z,94.27
2017-11-13T10:32:00.528Z,94.08
2017-11-13T10:33:00.840Z,94.13
2017-11-13T10:34:00.833Z,94.13
2017-11-13T10:35:00.509Z,94.13
2017-11-13T10:36:00.825Z,94.42
2017-11-13T10:37:00.809Z,94.03
2017-11-13T10:38:00.794Z,94.32
2017-11-13T10:39:00.776Z,94.03
2017-11-13T10:40:00.814Z,93.94
2017-11-13T10:41:00.437Z,94.03
2017-11-13T10:42:00.760Z,93.98
2017-11-13T10:43:00.737Z,94.42
2017-11-13T10:44:00.714Z,94.03
2017-11-13T10:45:00.760Z,94.22
2017-11-13T10:46:00.778Z,94.27
2017-11-13T10:47:00.724Z,94.51
2017-11-13T10:48:00.708Z,94.32
2017-11-13T10:49:00.701Z,94.42
2017-11-13T10:50:00.707Z,94.42
2017-11-13T10:51:00.346Z,94.27
2017-11-13T10:52:00.668Z,94.51
2017-11-13T10:53:00.635Z,94.32
2017-11-13T10:54:00.631Z,94.37
2017-11-13T10:55:00.640Z,94.27
2017-11-13T10:56:00.604Z,94.37
2017-11-13T10:57:00.591Z,94.27
2017-11-13T10:58:00.506Z,93.7
2017-11-13T10:59:00.570Z,93.89
2017-11-13T11:00:00.239Z,94.37
2017-11-13T11:01:00.569Z,94.46
2017-11-13T11:02:00.551Z,94.27
2017-11-13T11:03:00.536Z,93.89
2017-11-13T11:04:00.523Z,93.98
2017-11-13T11:05:00.517Z,94.17
2017-11-13T11:06:00.509Z,93.79
2017-11-13T11:07:00.533Z,94.46
2017-11-13T11:08:00.490Z,93.89
2017-11-13T11:09:00.482Z,93.7
2017-11-13T11:10:00.484Z,93.89
2017-11-13T11:11:00.698Z,93.7
2017-11-13T11:12:00.453Z,93.79
2017-11-13T11:13:00.631Z,93.7
2017-11-13T11:14:00.106Z,94.03
2017-11-13T11:15:00.421Z,94.22
2017-11-13T11:16:00.426Z,94.03
2017-11-13T11:17:00.421Z,94.13
2017-11-13T11:18:00.441Z,94.03
2017-11-13T11:19:00.393Z,94.22
2017-11-13T11:20:00.395Z,93.93
2017-11-13T11:21:00.397Z,93.93
2017-11-13T11:22:00.360Z,94.13
2017-11-13T11:23:00.355Z,94.03
2017-11-13T11:24:00.347Z,94.03
2017-11-13T11:25:00.332Z,94.22
2017-11-13T11:26:00.338Z,94.03
2017-11-13T11:27:00.332Z,93.93
2017-11-13T11:28:00.310Z,94.32
2017-11-13T11:29:00.329Z,94.32
2017-11-13T11:30:00.294Z,94.89
2017-11-13T11:31:00.311Z,94.22
2017-11-13T11:32:00.318Z,94.6
2017-11-13T11:33:00.289Z,94.6
2017-11-13T11:33:59.939Z,94.51
2017-11-13T11:35:00.250Z,94.65
2017-11-13T11:36:00.250Z,94.46
2017-11-13T11:37:00.247Z,94.32
2017-11-13T11:38:00.489Z,94.22
2017-11-13T11:39:00.222Z,94.7
2017-11-13T11:40:00.207Z,94.32
2017-11-13T11:41:00.201Z,94.22
2017-11-13T11:42:00.217Z,94.13
2017-11-13T11:43:00.180Z,94.22
2017-11-13T11:44:00.188Z,93.93
2017-11-13T11:45:00.175Z,94.41
2017-11-13T11:46:00.158Z,94.6
2017-11-13T11:47:00.149Z,94.41
2017-11-13T11:47:59.809Z,94.32
2017-11-13T11:49:00.130Z,94.32
2017-11-13T11:50:00.124Z,94.32
2017-11-13T11:51:00.121Z,94.41
2017-11-13T11:52:00.106Z,94.32
2017-11-13T11:53:00.097Z,94.22
2017-11-13T11:54:00.102Z,94.41
2017-11-13T11:55:00.074Z,94.41
2017-11-13T11:56:00.114Z,94.51
2017-11-13T11:57:00.120Z,94.6
2017-11-13T11:58:00.049Z,94.41
2017-11-13T11:59:00.049Z,94.41
2017-11-13T12:00:00.059Z,94.51
2017-11-13T12:01:00.322Z,94.6
2017-11-13T12:02:00.024Z,94.7
2017-11-13T12:03:00.001Z,94.6
2017-11-13T12:04:00.032Z,94.51
2017-11-13T12:05:00.041Z,94.98
2017-11-13T12:05:59.663Z,95.03
2017-11-13T12:07:00.027Z,95.12
2017-11-13T12:07:59.959Z,95.6
2017-11-13T12:08:59.951Z,95.6
2017-11-13T12:09:59.941Z,95.41
2017-11-13T12:10:59.943Z,95.51
2017-11-13T12:11:59.924Z,95.75
2017-11-13T12:12:59.923Z,96.36
2017-11-13T12:13:59.935Z,95.89
2017-11-13T12:14:59.895Z,95.84
2017-11-13T12:15:59.918Z,95.75
2017-11-13T12:16:59.874Z,95.75
2017-11-13T12:17:59.903Z,95.56
2017-11-13T12:18:59.867Z,95.56
2017-11-13T12:19:59.877Z,95.56
2017-11-13T12:20:59.847Z,95.84
2017-11-13T12:21:59.890Z,95.84
2017-11-13T12:22:59.849Z,96.12
2017-11-13T12:23:59.880Z,96.22
2017-11-13T12:24:59.829Z,96.08
2017-11-13T12:25:59.821Z,96.46
2017-11-13T12:26:59.479Z,96.26
2017-11-13T12:27:59.786Z,95.7
2017-11-13T12:28:59.775Z,95.89
2017-11-13T12:29:59.766Z,95.89
2017-11-13T12:30:59.744Z,95.98
2017-11-13T12:31:59.765Z,96.08
2017-11-13T12:32:59.725Z,95.79
2017-11-13T12:33:59.726Z,96.36
2017-11-13T12:34:59.717Z,95.98
2017-11-13T12:35:59.696Z,95.89
2017-11-13T12:36:59.730Z,95.98
2017-11-13T12:37:59.683Z,95.7
2017-11-13T12:38:59.710Z,95.7
2017-11-13T12:39:59.670Z,96.36
2017-11-13T12:40:59.662Z,96.08
2017-11-13T12:41:59.644Z,96.08
2017-11-13T12:42:59.649Z,95.98
2017-11-13T12:43:59.618Z,96.36
2017-11-13T12:44:59.620Z,95.6
2017-11-13T12:45:59.287Z,95.6
2017-11-13T12:46:59.261Z,96.08
2017-11-13T12:47:59.583Z,95.98
2017-11-13T12:48:59.570Z,95.89
2017-11-13T12:49:59.241Z,96.46
2017-11-13T12:50:59.549Z,95.98
2017-11-13T12:51:59.541Z,95.79
2017-11-13T12:52:59.537Z,96.17
2017-11-13T12:53:59.517Z,96.17